Time;durP1;ratioP1;P1;durP2;ratioP2;P2;SDS_P1;SDS_P2;PMS_P1;PMS_P2;Temp;Humidity;BMP_temperature;BMP_pressure;BME280_temperature;BME280_humidity;BME280_pressure;Samples;Min_cycle;Max_cycle;Signal;HPM_P1;HPM_P2
2022/04/18 00:01:41;;;;;;;14.90;11.60;;;7.60;82.80;;;;;;4798852;29;20050;-69
2022/04/18 00:04:07;;;;;;;15.45;12.40;;;7.60;83.90;;;;;;4784594;30;20421;-69
2022/04/18 00:06:35;;;;;;;14.13;12.02;;;7.50;84.50;;;;;;4808724;29;20065;-69
2022/04/18 00:09:01;;;;;;;14.38;11.93;;;7.50;84.10;;;;;;4809393;29;20514;-69
2022/04/18 00:11:27;;;;;;;16.73;12.98;;;7.60;84.00;;;;;;4804872;29;20070;-69
2022/04/18 00:13:52;;;;;;;17.20;13.02;;;7.50;84.60;;;;;;4802496;29;20055;-69
2022/04/18 00:16:18;;;;;;;16.10;13.43;;;7.50;84.80;;;;;;4776774;29;20042;-69
2022/04/18 00:18:44;;;;;;;15.43;12.40;;;7.50;85.40;;;;;;4774415;29;20512;-69
2022/04/18 00:21:09;;;;;;;16.48;12.27;;;7.60;86.70;;;;;;4775702;29;20057;-69
2022/04/18 00:23:35;;;;;;;17.27;12.95;;;7.40;86.70;;;;;;4785939;29;20072;-69
2022/04/18 00:26:00;;;;;;;17.95;12.50;;;7.40;87.10;;;;;;4792006;29;20043;-69
2022/04/18 00:28:26;;;;;;;20.02;13.20;;;7.40;87.00;;;;;;4787438;29;20051;-69
2022/04/18 00:30:53;;;;;;;17.08;12.75;;;7.40;86.20;;;;;;4794493;29;20133;-69
2022/04/18 00:33:19;;;;;;;15.65;12.75;;;7.50;85.10;;;;;;4792693;29;20133;-69
2022/04/18 00:35:44;;;;;;;14.77;11.70;;;7.40;85.50;;;;;;4790514;29;20191;-70
2022/04/18 00:38:10;;;;;;;16.95;12.13;;;7.40;85.50;;;;;;4789859;29;20051;-69
2022/04/18 00:40:35;;;;;;;18.92;13.18;;;7.40;85.70;;;;;;4804872;29;20055;-68
2022/04/18 00:43:03;;;;;;;17.33;12.57;;;7.40;86.00;;;;;;4789224;29;20046;-69
2022/04/18 00:45:28;;;;;;;15.73;12.52;;;7.30;86.90;;;;;;4791924;29;20063;-70
2022/04/18 00:47:54;;;;;;;16.90;13.18;;;7.30;87.10;;;;;;4802611;29;20055;-69
2022/04/18 00:50:19;;;;;;;16.17;12.80;;;7.30;87.20;;;;;;4795594;29;20057;-69
2022/04/18 00:52:46;;;;;;;14.35;12.38;;;7.30;86.70;;;;;;4790506;29;20102;-69
2022/04/18 00:55:13;;;;;;;16.50;12.52;;;7.30;86.40;;;;;;4796251;29;20055;-69
2022/04/18 00:57:40;;;;;;;17.45;12.10;;;7.30;86.50;;;;;;4790083;29;20086;-69
2022/04/18 01:00:06;;;;;;;14.70;11.93;;;7.30;86.60;;;;;;4775474;29;20103;-69
2022/04/18 01:02:32;;;;;;;19.35;12.70;;;7.30;85.40;;;;;;4789897;29;20454;-69
2022/04/18 01:04:58;;;;;;;17.52;13.40;;;7.30;86.00;;;;;;4786988;29;20085;-69
2022/04/18 01:07:24;;;;;;;25.20;13.35;;;7.20;86.70;;;;;;4805396;29;20097;-69
2022/04/18 01:09:49;;;;;;;17.17;13.23;;;7.20;86.10;;;;;;4801370;29;20086;-69
2022/04/18 01:12:15;;;;;;;17.42;13.05;;;7.20;85.90;;;;;;4796504;29;20416;-69
2022/04/18 01:14:47;;;;;;;18.58;13.18;;;7.20;86.60;;;;;;4789222;29;20464;-69
2022/04/18 01:17:14;;;;;;;15.43;13.25;;;7.20;88.00;;;;;;4775810;29;20443;-69
2022/04/18 01:19:39;;;;;;;17.55;13.30;;;7.10;87.20;;;;;;4804234;29;20547;-69
2022/04/18 01:22:05;;;;;;;16.50;12.38;;;7.20;88.60;;;;;;4805604;29;20086;-69
2022/04/18 01:30:02;;;;;;;19.02;14.30;;;7.00;91.00;;;;;;4779734;30;20134;-68
2022/04/18 01:32:28;;;;;;;17.80;12.85;;;7.00;91.30;;;;;;4772288;29;20516;-69
2022/04/18 01:34:53;;;;;;;20.02;13.68;;;6.90;91.60;;;;;;4781484;29;20158;-68
2022/04/18 01:37:19;;;;;;;19.58;13.82;;;6.90;92.40;;;;;;4780872;30;20051;-69
2022/04/18 01:39:44;;;;;;;19.42;14.55;;;6.90;93.40;;;;;;4788450;29;20508;-69
2022/04/18 01:42:10;;;;;;;18.33;14.20;;;6.80;94.10;;;;;;4799064;29;20440;-68
2022/04/18 01:44:35;;;;;;;21.08;13.95;;;6.80;93.90;;;;;;4803995;29;20062;-69
2022/04/18 01:47:01;;;;;;;19.48;14.25;;;6.90;94.40;;;;;;4805235;29;20058;-69
2022/04/18 01:49:27;;;;;;;20.45;14.57;;;6.80;94.90;;;;;;4789594;29;20077;-68
2022/04/18 01:51:53;;;;;;;19.17;14.15;;;6.80;95.00;;;;;;4788929;29;20142;-68
2022/04/18 01:54:19;;;;;;;21.00;14.73;;;6.80;95.40;;;;;;4781112;29;20142;-69
2022/04/18 01:56:44;;;;;;;20.08;14.90;;;6.80;95.70;;;;;;4779090;29;20106;-69
2022/04/18 01:59:10;;;;;;;19.95;14.60;;;6.80;96.30;;;;;;4806129;29;20046;-69
2022/04/18 02:01:36;;;;;;;20.77;13.82;;;6.80;96.70;;;;;;4805416;29;20059;-69
2022/04/18 02:04:02;;;;;;;17.70;13.98;;;6.70;96.90;;;;;;4803180;29;20153;-68
2022/04/18 02:06:28;;;;;;;20.48;14.82;;;6.70;97.50;;;;;;4796574;29;20050;-69
2022/04/18 02:08:54;;;;;;;18.85;14.07;;;6.60;98.10;;;;;;4774313;29;20054;-68
2022/04/18 02:11:20;;;;;;;21.27;14.15;;;6.60;98.70;;;;;;4773862;29;20095;-69
2022/04/18 02:13:48;;;;;;;19.13;14.82;;;6.60;99.00;;;;;;4770018;29;20100;-69
2022/04/18 02:16:14;;;;;;;19.92;13.55;;;6.60;99.90;;;;;;4808235;29;20046;-69
2022/04/18 02:18:39;;;;;;;17.95;14.75;;;6.60;99.90;;;;;;4805507;29;20049;-69
2022/04/18 02:21:05;;;;;;;20.08;14.68;;;6.50;99.90;;;;;;4774953;29;20043;-69
2022/04/18 02:23:31;;;;;;;17.38;13.82;;;6.60;99.90;;;;;;4789312;29;20057;-69
2022/04/18 02:25:56;;;;;;;17.58;13.77;;;6.40;99.90;;;;;;4804991;29;20050;-69
2022/04/18 02:28:22;;;;;;;20.63;14.95;;;6.40;99.90;;;;;;4788304;29;20055;-68
2022/04/18 02:30:47;;;;;;;18.13;14.30;;;6.30;99.90;;;;;;4801166;29;20134;-69
2022/04/18 02:33:13;;;;;;;19.55;13.88;;;6.30;99.90;;;;;;4787592;30;20445;-68
2022/04/18 02:35:39;;;;;;;18.75;12.68;;;6.20;99.90;;;;;;4775349;30;20059;-68
2022/04/18 02:38:04;;;;;;;23.38;15.38;;;6.20;99.90;;;;;;4771259;30;20499;-69
2022/04/18 02:40:30;;;;;;;18.00;14.30;;;6.20;99.90;;;;;;4804297;29;20171;-69
2022/04/18 02:42:55;;;;;;;21.60;15.50;;;6.10;99.90;;;;;;4791534;29;20525;-69
2022/04/18 02:45:21;;;;;;;19.85;14.43;;;6.10;99.90;;;;;;4778695;29;20047;-69
2022/04/18 02:47:47;;;;;;;19.27;14.20;;;6.10;99.90;;;;;;4801370;29;20411;-69
2022/04/18 02:50:13;;;;;;;19.85;13.90;;;6.10;99.90;;;;;;4807488;29;20054;-69
2022/04/18 02:52:39;;;;;;;18.30;13.25;;;6.00;99.90;;;;;;4804093;29;20507;-70
2022/04/18 02:55:06;;;;;;;18.35;13.98;;;6.00;99.90;;;;;;4788407;29;20055;-70
2022/04/18 02:57:32;;;;;;;18.65;14.90;;;5.90;99.90;;;;;;4788787;29;20133;-70
2022/04/18 02:59:57;;;;;;;20.33;13.60;;;6.10;99.90;;;;;;4778040;29;20043;-70
2022/04/18 03:02:23;;;;;;;22.02;15.25;;;5.90;99.90;;;;;;4805366;29;20065;-69
2022/04/18 03:04:48;;;;;;;21.52;14.25;;;5.80;99.90;;;;;;4804345;29;20051;-69
2022/04/18 03:07:14;;;;;;;21.17;14.23;;;5.80;99.90;;;;;;4773749;29;20489;-70
2022/04/18 03:09:40;;;;;;;19.05;13.27;;;5.80;99.90;;;;;;4778055;29;20054;-70
2022/04/18 03:12:07;;;;;;;16.83;13.82;;;5.80;99.90;;;;;;4792264;29;20518;-69
2022/04/18 03:14:33;;;;;;;17.45;13.43;;;5.70;99.90;;;;;;4781791;29;20047;-70
2022/04/18 03:16:58;;;;;;;19.38;13.88;;;5.70;99.90;;;;;;4771006;30;20047;-70
2022/04/18 03:19:25;;;;;;;18.17;14.07;;;5.70;99.90;;;;;;4770873;30;20126;-70
2022/04/18 03:21:51;;;;;;;18.80;14.20;;;5.70;99.90;;;;;;4788611;29;20108;-70
2022/04/18 03:24:17;;;;;;;17.50;13.18;;;5.70;99.90;;;;;;4767246;29;20133;-69
2022/04/18 03:26:43;;;;;;;18.00;13.27;;;5.70;99.90;;;;;;4809467;29;20054;-70
2022/04/18 03:29:09;;;;;;;17.00;13.65;;;5.70;99.90;;;;;;4776457;29;20057;-70
2022/04/18 03:31:34;;;;;;;17.95;14.45;;;5.70;99.90;;;;;;4804870;29;20500;-70
2022/04/18 03:34:00;;;;;;;17.80;13.73;;;5.60;99.90;;;;;;4790788;29;20054;-69
2022/04/18 03:41:53;;;;;;;18.73;13.93;;;5.70;99.90;;;;;;4805114;29;20055;-69
2022/04/18 03:44:19;;;;;;;17.35;12.70;;;5.70;99.90;;;;;;4783898;29;20051;-69
2022/04/18 03:46:45;;;;;;;18.48;13.52;;;5.70;99.90;;;;;;4790414;29;20130;-69
2022/04/18 03:49:10;;;;;;;18.15;13.00;;;5.70;99.90;;;;;;4807426;29;20069;-69
2022/04/18 03:51:36;;;;;;;20.65;13.90;;;5.70;99.90;;;;;;4790837;29;20051;-69
2022/04/18 03:54:03;;;;;;;17.65;13.02;;;5.60;99.90;;;;;;4806790;29;20457;-70
2022/04/18 03:56:28;;;;;;;17.90;13.23;;;5.70;99.90;;;;;;4792349;29;20051;-70
2022/04/18 03:58:54;;;;;;;19.92;13.18;;;5.50;99.90;;;;;;4790324;29;20067;-70
2022/04/18 04:01:19;;;;;;;18.05;14.38;;;5.70;99.90;;;;;;4792554;29;20521;-69
2022/04/18 04:03:45;;;;;;;15.98;13.32;;;5.70;99.90;;;;;;4789990;29;20066;-70
2022/04/18 04:06:11;;;;;;;19.48;14.00;;;5.70;99.90;;;;;;4807084;29;20054;-69
2022/04/18 04:08:36;;;;;;;21.20;14.05;;;5.70;99.90;;;;;;4791802;29;20418;-70
2022/04/18 04:11:02;;;;;;;19.63;13.63;;;5.70;99.90;;;;;;4789218;29;20061;-69
2022/04/18 04:13:27;;;;;;;17.52;13.13;;;5.60;99.90;;;;;;4787788;29;20057;-69
2022/04/18 04:15:53;;;;;;;18.02;13.32;;;5.60;99.90;;;;;;4793292;29;20062;-69
2022/04/18 04:18:21;;;;;;;17.42;13.85;;;5.70;99.90;;;;;;4807328;29;20055;-70
2022/04/18 04:20:47;;;;;;;18.23;13.52;;;5.60;99.90;;;;;;4806733;29;20551;-69
2022/04/18 04:23:12;;;;;;;16.17;11.95;;;5.60;99.90;;;;;;4806876;29;20146;-69
2022/04/18 04:25:38;;;;;;;17.48;13.13;;;5.60;99.90;;;;;;4790542;29;20144;-69
2022/04/18 04:28:04;;;;;;;15.60;11.63;;;5.70;99.90;;;;;;4775545;29;20070;-69
2022/04/18 04:30:29;;;;;;;18.92;12.88;;;5.60;99.90;;;;;;4790331;29;20111;-69
2022/04/18 04:32:55;;;;;;;15.93;12.75;;;5.60;99.90;;;;;;4805683;29;20043;-69
2022/04/18 04:35:22;;;;;;;20.15;12.88;;;5.50;99.90;;;;;;4803114;29;20058;-70
2022/04/18 04:37:47;;;;;;;17.63;12.57;;;5.50;99.90;;;;;;4788530;29;20126;-69
2022/04/18 04:40:17;;;;;;;17.48;12.95;;;5.40;99.90;;;;;;4789556;29;20441;-70
2022/04/18 04:42:43;;;;;;;15.60;12.13;;;5.50;99.90;;;;;;4788255;29;20055;-70
2022/04/18 04:45:09;;;;;;;17.05;12.02;;;5.50;99.90;;;;;;4803942;29;20066;-69
2022/04/18 04:47:34;;;;;;;17.38;12.18;;;5.50;99.90;;;;;;4785468;29;20063;-69
2022/04/18 04:50:03;;;;;;;16.02;12.30;;;5.50;99.90;;;;;;4807175;29;20067;-70
2022/04/18 04:52:29;;;;;;;16.20;12.30;;;5.50;99.90;;;;;;4804546;29;20043;-70
2022/04/18 04:54:59;;;;;;;16.80;11.60;;;5.60;99.90;;;;;;4775875;29;20204;-70
2022/04/18 04:57:26;;;;;;;16.95;11.68;;;5.40;99.90;;;;;;4790286;29;20062;-69
2022/04/18 04:59:59;;;;;;;16.85;12.55;;;5.40;99.90;;;;;;4775648;29;20070;-70
2022/04/18 05:02:25;;;;;;;19.23;11.55;;;5.40;99.90;;;;;;4774763;29;20100;-70
2022/04/18 05:04:52;;;;;;;14.70;11.57;;;5.40;99.90;;;;;;4805246;29;20055;-70
2022/04/18 05:07:29;;;;;;;19.20;12.18;;;5.40;99.90;;;;;;4790213;29;20442;-70
2022/04/18 05:09:58;;;;;;;15.88;11.75;;;5.40;99.90;;;;;;4789973;29;20046;-69
2022/04/18 05:12:28;;;;;;;16.13;12.40;;;5.40;99.90;;;;;;4772337;29;20055;-70
2022/04/18 05:15:09;;;;;;;16.60;11.38;;;5.40;99.90;;;;;;4788432;29;20409;-69
2022/04/18 05:17:42;;;;;;;17.10;12.13;;;5.40;99.90;;;;;;4790292;29;20062;-70
2022/04/18 05:20:09;;;;;;;17.50;12.75;;;5.50;99.90;;;;;;4776088;30;20113;-69
2022/04/18 05:22:53;;;;;;;14.50;11.02;;;5.50;99.90;;;;;;4772807;30;20065;-69
2022/04/18 05:25:22;;;;;;;16.02;11.27;;;5.40;99.90;;;;;;4787836;29;20055;-69
2022/04/18 05:27:49;;;;;;;16.45;12.65;;;5.50;99.90;;;;;;4789779;29;20058;-70
2022/04/18 05:30:24;;;;;;;14.00;11.57;;;5.80;99.90;;;;;;4775022;29;20133;-70
2022/04/18 05:33:15;;;;;;;15.40;11.60;;;5.80;99.90;;;;;;4801756;29;20074;-70
2022/04/18 05:36:06;;;;;;;15.20;11.38;;;6.10;99.90;;;;;;4785285;29;20090;-70
2022/04/18 05:38:32;;;;;;;15.60;11.73;;;6.10;99.90;;;;;;4772073;30;20075;-69
2022/04/18 05:41:03;;;;;;;15.13;12.25;;;6.50;99.90;;;;;;4797903;29;20047;-70
2022/04/18 05:43:29;;;;;;;16.90;11.90;;;6.80;99.90;;;;;;4785442;29;20051;-70
2022/04/18 05:45:58;;;;;;;18.27;11.30;;;7.00;99.90;;;;;;4774345;29;20576;-70
2022/04/18 05:48:51;;;;;;;14.90;11.85;;;7.20;99.90;;;;;;4785406;29;20335;-70
2022/04/18 05:51:43;;;;;;;15.95;12.30;;;7.90;99.90;;;;;;4782706;29;20050;-70
2022/04/18 05:54:09;;;;;;;16.55;13.18;;;9.00;98.20;;;;;;4786514;29;20054;-69
2022/04/18 05:56:39;;;;;;;14.85;11.95;;;9.60;86.00;;;;;;4774973;29;20051;-70
2022/04/18 05:59:31;;;;;;;16.08;13.20;;;10.50;77.60;;;;;;4775699;29;20574;-70
2022/04/18 06:02:00;;;;;;;16.30;12.77;;;10.30;73.40;;;;;;4766011;30;20048;-70
2022/04/18 06:04:41;;;;;;;17.55;12.95;;;9.80;76.60;;;;;;4740522;30;20105;-71
2022/04/18 06:07:07;;;;;;;15.02;12.85;;;9.20;88.20;;;;;;4752417;30;20055;-70
2022/04/18 06:09:33;;;;;;;15.82;12.05;;;8.80;97.10;;;;;;4738411;30;20048;-70
2022/04/18 06:12:02;;;;;;;16.48;12.85;;;8.60;99.90;;;;;;4768618;30;20483;-70
2022/04/18 06:14:59;;;;;;;18.17;12.75;;;8.40;99.90;;;;;;4749953;30;20063;-71
2022/04/18 06:17:30;;;;;;;15.48;13.40;;;8.20;99.90;;;;;;4736473;30;20087;-69
2022/04/18 06:20:21;;;;;;;15.88;12.93;;;8.20;99.90;;;;;;4751541;30;20056;-70
2022/04/18 06:22:46;;;;;;;17.00;13.15;;;8.20;99.90;;;;;;4763517;30;20048;-70
2022/04/18 06:25:12;;;;;;;15.40;13.07;;;8.20;99.90;;;;;;4769805;30;20452;-70
2022/04/18 06:27:40;;;;;;;14.68;13.07;;;8.20;99.90;;;;;;4738776;30;20166;-70
2022/04/18 06:30:30;;;;;;;17.17;13.50;;;8.30;99.90;;;;;;4753285;30;20144;-70
2022/04/18 06:33:12;;;;;;;17.40;12.95;;;8.30;99.90;;;;;;4769432;30;20062;-70
2022/04/18 06:35:38;;;;;;;15.63;13.15;;;8.20;99.90;;;;;;4737975;30;20052;-70
2022/04/18 06:38:53;;;;;;;16.65;12.93;;;8.60;99.90;;;;;;4769465;30;20048;-70
2022/04/18 06:41:45;;;;;;;17.25;13.80;;;8.70;99.90;;;;;;4753449;30;20078;-69
2022/04/18 06:44:11;;;;;;;14.30;12.68;;;8.80;99.90;;;;;;4752170;30;20067;-69
2022/04/18 06:46:37;;;;;;;15.23;12.55;;;8.90;99.90;;;;;;4752886;30;20056;-70
2022/04/18 06:49:16;;;;;;;15.18;12.27;;;9.00;99.90;;;;;;4752118;30;20048;-69
2022/04/18 06:51:41;;;;;;;16.48;11.77;;;9.20;99.90;;;;;;4752846;30;20535;-70
2022/04/18 06:54:34;;;;;;;14.70;12.05;;;9.20;98.60;;;;;;4752751;30;20167;-69
2022/04/18 06:57:00;;;;;;;15.32;12.65;;;9.40;98.70;;;;;;4750312;30;20482;-71
2022/04/18 06:59:28;;;;;;;15.23;11.73;;;9.40;97.70;;;;;;4755799;30;20047;-68
2022/04/18 07:01:59;;;;;;;18.55;12.95;;;9.60;97.70;;;;;;4735543;30;20048;-69
2022/04/18 07:04:28;;;;;;;13.43;11.63;;;9.70;96.00;;;;;;4768648;30;20070;-71
2022/04/18 07:09:53;;;;;;;16.90;11.95;;;9.90;91.50;;;;;;4772020;30;20200;-68
2022/04/18 07:12:51;;;;;;;13.60;11.23;;;10.10;92.80;;;;;;4770456;30;20056;-69
2022/04/18 07:15:20;;;;;;;16.88;11.60;;;10.20;89.90;;;;;;4740714;30;20059;-68
2022/04/18 07:17:45;;;;;;;15.30;11.75;;;10.30;84.30;;;;;;4756665;30;20052;-68
2022/04/18 07:20:15;;;;;;;12.27;10.73;;;10.40;81.30;;;;;;4755799;30;21132;-69
2022/04/18 07:22:41;;;;;;;13.50;10.65;;;10.50;80.30;;;;;;4757526;30;20052;-70
2022/04/18 07:25:10;;;;;;;12.38;11.07;;;10.60;79.20;;;;;;4772118;30;20063;-68
2022/04/18 07:27:36;;;;;;;14.73;11.25;;;10.70;78.60;;;;;;4755566;30;20121;-69
2022/04/18 07:30:03;;;;;;;13.70;11.63;;;10.90;78.30;;;;;;4772175;30;20162;-69
2022/04/18 07:35:36;;;;;;;14.90;10.02;;;11.20;79.50;;;;;;4755687;30;20055;-69
2022/04/18 07:41:04;;;;;;;12.20;9.55;;;11.50;73.40;;;;;;4769828;30;20097;-68
2022/04/18 07:43:57;;;;;;;10.98;9.23;;;11.70;71.60;;;;;;4751460;30;20078;-69
2022/04/18 07:46:25;;;;;;;13.30;9.85;;;11.70;71.00;;;;;;4737647;30;20147;-69
2022/04/18 07:49:01;;;;;;;11.88;8.98;;;12.00;71.40;;;;;;4738043;30;20419;-68
2022/04/18 07:51:36;;;;;;;11.95;9.65;;;12.10;69.00;;;;;;4754022;30;20058;-68
2022/04/18 07:54:17;;;;;;;11.15;9.15;;;12.10;68.50;;;;;;4769635;30;20067;-68
2022/04/18 07:57:09;;;;;;;12.10;8.73;;;12.20;66.80;;;;;;4769866;30;20587;-69
2022/04/18 07:59:35;;;;;;;11.20;8.70;;;12.40;67.00;;;;;;4754369;30;20139;-66
2022/04/18 08:02:08;;;;;;;11.25;9.05;;;12.50;66.40;;;;;;4747738;30;20123;-69
2022/04/18 08:05:00;;;;;;;12.35;8.77;;;12.60;66.00;;;;;;4754365;30;20052;-69
2022/04/18 08:07:30;;;;;;;11.05;8.70;;;12.70;64.20;;;;;;4746439;30;20051;-69
2022/04/18 08:09:55;;;;;;;12.80;9.45;;;12.80;65.00;;;;;;4767549;30;20062;-68
2022/04/18 08:12:21;;;;;;;10.73;8.70;;;12.80;65.00;;;;;;4752722;30;20047;-68
2022/04/18 08:15:06;;;;;;;12.18;8.45;;;12.90;64.50;;;;;;4770160;30;20059;-68
2022/04/18 08:17:57;;;;;;;9.63;8.40;;;13.00;63.90;;;;;;4755458;30;20068;-67
2022/04/18 08:20:23;;;;;;;11.60;8.90;;;13.10;62.90;;;;;;4755873;30;20056;-67
2022/04/18 08:22:50;;;;;;;13.95;9.45;;;13.20;64.10;;;;;;4740956;30;20051;-67
2022/04/18 08:25:25;;;;;;;11.65;9.15;;;13.50;64.50;;;;;;4741956;30;20112;-66
2022/04/18 08:27:51;;;;;;;11.20;8.75;;;13.40;64.10;;;;;;4770546;30;20082;-66
2022/04/18 08:30:29;;;;;;;10.90;8.90;;;13.40;63.70;;;;;;4741249;30;20104;-69
2022/04/18 08:36:23;;;;;;;10.57;9.05;;;13.60;62.70;;;;;;4752979;30;20059;-69
2022/04/18 08:39:11;;;;;;;13.65;9.80;;;13.70;63.10;;;;;;4749637;30;20052;-68
2022/04/18 08:41:39;;;;;;;10.77;8.68;;;13.90;63.00;;;;;;4754991;30;20515;-68
2022/04/18 08:44:05;;;;;;;11.40;8.90;;;13.90;62.70;;;;;;4770445;30;20062;-69
2022/04/18 08:46:31;;;;;;;10.02;8.63;;;14.00;62.30;;;;;;4770806;30;20494;-70
2022/04/18 08:54:52;;;;;;;10.73;7.93;;;14.30;61.70;;;;;;4753074;30;20459;-69
2022/04/18 08:57:18;;;;;;;10.50;8.32;;;14.50;61.20;;;;;;4753656;30;20055;-69
2022/04/18 09:02:41;;;;;;;12.02;8.73;;;14.50;60.70;;;;;;4751951;30;20051;-68
2022/04/18 09:05:14;;;;;;;10.23;8.32;;;14.70;61.00;;;;;;4750939;30;20058;-68
2022/04/18 09:07:58;;;;;;;12.35;8.77;;;14.80;60.50;;;;;;4751700;30;20116;-69
2022/04/18 09:10:23;;;;;;;9.65;7.47;;;14.90;59.60;;;;;;4753817;30;20575;-70
2022/04/18 09:12:50;;;;;;;11.07;8.13;;;15.10;59.70;;;;;;4752630;30;20079;-70
2022/04/18 09:15:34;;;;;;;10.77;7.97;;;15.20;59.20;;;;;;4748636;30;20105;-70
2022/04/18 09:18:29;;;;;;;10.82;7.85;;;15.30;58.40;;;;;;4752174;30;20350;-71
2022/04/18 09:23:43;;;;;;;9.07;7.47;;;15.40;58.20;;;;;;4752296;30;20050;-70
2022/04/18 09:26:36;;;;;;;9.40;7.95;;;15.50;58.80;;;;;;4753923;30;20425;-69
2022/04/18 09:29:04;;;;;;;9.23;8.25;;;15.70;58.10;;;;;;4735820;30;20052;-70
2022/04/18 09:32:20;;;;;;;10.13;8.60;;;15.80;58.70;;;;;;4721949;30;20442;-70
2022/04/18 09:34:46;;;;;;;10.80;7.95;;;16.00;57.10;;;;;;4735938;30;20072;-71
2022/04/18 09:37:39;;;;;;;10.25;8.73;;;16.00;57.40;;;;;;4736242;30;20045;-71
2022/04/18 09:40:10;;;;;;;12.70;8.35;;;16.00;56.50;;;;;;4753124;30;20059;-71
2022/04/18 09:43:27;;;;;;;9.77;7.90;;;15.90;57.20;;;;;;4753437;30;20052;-70
2022/04/18 09:45:54;;;;;;;8.60;7.63;;;16.10;56.80;;;;;;4770061;30;20055;-70
2022/04/18 09:48:23;;;;;;;8.82;7.90;;;16.20;56.30;;;;;;4768600;30;20066;-71
2022/04/18 09:51:11;;;;;;;8.85;7.85;;;16.20;56.30;;;;;;4739418;30;20069;-72
2022/04/18 09:53:40;;;;;;;10.40;8.30;;;16.30;56.60;;;;;;4768285;30;20064;-70
2022/04/18 09:56:12;;;;;;;9.60;8.40;;;16.40;56.00;;;;;;4739408;30;20070;-71
2022/04/18 09:58:38;;;;;;;11.55;8.30;;;16.50;56.10;;;;;;4738933;30;20051;-72
2022/04/18 10:04:05;;;;;;;10.63;8.93;;;16.70;56.70;;;;;;4753136;30;20051;-70
2022/04/18 10:06:41;;;;;;;8.23;7.40;;;16.80;55.30;;;;;;4738429;30;20055;-72
2022/04/18 10:09:16;;;;;;;10.52;7.85;;;16.90;56.10;;;;;;4753402;30;20493;-70
2022/04/18 10:12:00;;;;;;;9.45;8.35;;;17.00;56.30;;;;;;4738808;30;20056;-72
2022/04/18 10:14:31;;;;;;;9.05;7.82;;;17.10;54.80;;;;;;4754082;30;20127;-71
2022/04/18 10:17:08;;;;;;;9.57;7.90;;;17.20;54.70;;;;;;4753573;30;20047;-70
2022/04/18 10:19:34;;;;;;;9.77;7.72;;;17.30;54.60;;;;;;4739222;30;20044;-71
2022/04/18 10:22:59;;;;;;;8.05;7.20;;;17.50;53.90;;;;;;4738685;30;20052;-71
2022/04/18 10:25:56;;;;;;;8.85;7.05;;;17.40;52.10;;;;;;4753192;30;20059;-71
2022/04/18 10:28:48;;;;;;;8.70;7.20;;;17.60;52.80;;;;;;4769381;30;20056;-71
2022/04/18 10:31:35;;;;;;;7.60;6.90;;;17.70;53.00;;;;;;4769593;30;20047;-71
2022/04/18 10:34:04;;;;;;;8.05;7.25;;;17.60;52.00;;;;;;4756963;30;20116;-70
2022/04/18 10:36:59;;;;;;;6.80;6.18;;;17.70;52.30;;;;;;4757183;30;20055;-71
2022/04/18 10:40:34;;;;;;;7.47;6.53;;;17.70;49.70;;;;;;4757484;30;20394;-71
2022/04/18 10:43:55;;;;;;;6.60;5.60;;;17.70;52.00;;;;;;4756913;30;20126;-71
2022/04/18 10:46:24;;;;;;;6.68;5.50;;;17.90;51.20;;;;;;4752688;30;20082;-72
2022/04/18 10:49:19;;;;;;;7.18;5.40;;;17.90;50.90;;;;;;4756691;30;20397;-73
2022/04/18 10:51:54;;;;;;;8.65;5.43;;;18.00;48.80;;;;;;4742244;30;20052;-72
2022/04/18 10:58:56;;;;;;;8.95;6.25;;;18.20;47.10;;;;;;4771769;30;20076;-72
2022/04/18 11:01:53;;;;;;;5.72;5.10;;;18.30;47.80;;;;;;4741686;30;20051;-73
2022/04/18 11:16:43;;;;;;;6.40;3.97;;;18.70;42.40;;;;;;4771986;30;20058;-69
2022/04/18 11:19:22;;;;;;;6.63;4.80;;;18.70;44.10;;;;;;4756263;30;20465;-70
2022/04/18 11:21:57;;;;;;;5.30;4.35;;;18.80;45.90;;;;;;4742153;30;20056;-72
2022/04/18 11:25:00;;;;;;;5.30;4.80;;;18.80;45.00;;;;;;4742281;30;20063;-69
2022/04/18 11:28:15;;;;;;;4.90;4.38;;;18.90;43.70;;;;;;4755354;30;20048;-70
2022/04/18 11:30:41;;;;;;;5.03;4.20;;;19.10;45.90;;;;;;4741417;30;20056;-71
2022/04/18 11:33:07;;;;;;;8.63;4.38;;;19.00;45.10;;;;;;4741849;30;20055;-70
2022/04/18 11:35:34;;;;;;;6.75;4.80;;;19.00;44.60;;;;;;4756191;30;20047;-70
2022/04/18 11:38:11;;;;;;;5.13;4.70;;;19.00;44.60;;;;;;4772123;30;20123;-69
2022/04/18 11:48:06;;;;;;;5.38;4.60;;;19.00;42.00;;;;;;4755978;30;20052;-70
2022/04/18 11:50:50;;;;;;;5.25;4.47;;;19.00;43.20;;;;;;4742797;30;20102;-72
2022/04/18 11:57:15;;;;;;;6.93;4.50;;;19.30;42.40;;;;;;4734335;30;20052;-72
2022/04/18 11:59:41;;;;;;;7.47;4.97;;;19.30;42.90;;;;;;4704803;30;20056;-70
2022/04/18 12:08:10;;;;;;;5.75;4.63;;;19.30;44.00;;;;;;4755314;30;20084;-69
2022/04/18 12:10:45;;;;;;;6.50;5.63;;;19.50;44.10;;;;;;4755727;30;20130;-70
2022/04/18 12:13:23;;;;;;;6.15;5.53;;;19.50;43.10;;;;;;4755323;30;20054;-70
2022/04/18 12:15:49;;;;;;;5.18;4.72;;;19.50;42.60;;;;;;4740287;30;20040;-69
2022/04/18 12:18:18;;;;;;;6.82;5.13;;;19.50;43.30;;;;;;4755251;30;20127;-71
2022/04/18 12:21:15;;;;;;;6.45;5.32;;;19.60;43.40;;;;;;4741613;30;20514;-70
2022/04/18 12:24:08;;;;;;;7.43;5.65;;;19.70;42.90;;;;;;4769998;30;20047;-70
2022/04/18 12:26:34;;;;;;;5.55;4.80;;;19.80;42.60;;;;;;4754846;30;20054;-70
2022/04/18 12:29:25;;;;;;;6.05;5.43;;;19.80;42.00;;;;;;4739781;30;20050;-70
2022/04/18 12:35:11;;;;;;;5.03;4.47;;;19.70;41.50;;;;;;4755208;30;20140;-69
2022/04/18 12:37:43;;;;;;;5.95;5.35;;;19.70;41.70;;;;;;4755397;30;20539;-71
2022/04/18 12:40:33;;;;;;;7.90;5.55;;;19.70;42.50;;;;;;4755059;30;20422;-71
2022/04/18 12:43:08;;;;;;;5.80;5.13;;;19.80;41.20;;;;;;4739700;30;20055;-72
2022/04/18 12:46:05;;;;;;;5.63;5.13;;;19.90;41.40;;;;;;4755330;30;20055;-69
2022/04/18 12:48:33;;;;;;;6.18;5.32;;;20.00;41.80;;;;;;4757453;30;20071;-70
2022/04/18 12:51:07;;;;;;;6.03;4.88;;;20.00;42.30;;;;;;4754965;30;20055;-71
2022/04/18 12:53:53;;;;;;;6.00;5.40;;;20.20;42.90;;;;;;4739579;30;20059;-69
2022/04/18 12:56:23;;;;;;;6.05;5.20;;;20.10;40.80;;;;;;4739728;30;20062;-70
2022/04/18 13:02:17;;;;;;;6.93;5.40;;;19.90;41.40;;;;;;4754137;30;20059;-70
2022/04/18 13:04:58;;;;;;;6.18;5.13;;;19.90;41.20;;;;;;4754200;30;20477;-70
2022/04/18 13:07:24;;;;;;;6.57;5.22;;;19.90;42.20;;;;;;4742391;30;20048;-68
2022/04/18 13:10:01;;;;;;;8.57;5.95;;;19.90;42.40;;;;;;4754357;30;20141;-68
2022/04/18 13:12:33;;;;;;;6.15;5.55;;;20.00;41.60;;;;;;4770286;30;20062;-68
2022/04/18 13:15:03;;;;;;;6.25;5.65;;;20.00;41.90;;;;;;4751694;30;20055;-70
2022/04/18 13:17:32;;;;;;;6.50;5.90;;;20.10;42.30;;;;;;4737947;30;20048;-69
2022/04/18 13:19:58;;;;;;;6.13;5.53;;;20.10;42.30;;;;;;4753877;30;20505;-68
2022/04/18 13:22:24;;;;;;;7.15;5.60;;;20.10;41.50;;;;;;4768268;30;20214;-69
2022/04/18 13:24:50;;;;;;;6.80;6.03;;;20.20;41.70;;;;;;4771468;30;20477;-69
2022/04/18 13:27:26;;;;;;;6.88;6.18;;;20.20;41.40;;;;;;4753186;30;20059;-69
2022/04/18 13:29:52;;;;;;;6.80;6.20;;;20.20;40.50;;;;;;4767173;30;20127;-68
2022/04/18 13:32:17;;;;;;;6.38;5.78;;;20.10;40.50;;;;;;4766088;30;20176;-68
2022/04/18 13:34:43;;;;;;;6.70;6.00;;;20.00;40.80;;;;;;4766813;30;20090;-69
2022/04/18 13:37:09;;;;;;;7.57;6.22;;;20.00;41.10;;;;;;4766929;30;20428;-68
2022/04/18 13:39:35;;;;;;;6.72;6.03;;;20.00;40.90;;;;;;4737624;30;20071;-68
2022/04/18 13:42:00;;;;;;;6.93;5.85;;;20.10;42.20;;;;;;4753344;30;20452;-68
2022/04/18 13:44:26;;;;;;;6.43;5.82;;;20.20;42.90;;;;;;4766406;30;20056;-68
2022/04/18 13:46:51;;;;;;;7.25;6.55;;;20.20;42.90;;;;;;4753723;30;20051;-68
2022/04/18 13:49:17;;;;;;;6.57;5.70;;;20.30;42.00;;;;;;4753525;30;20051;-68
2022/04/18 13:51:43;;;;;;;7.70;6.10;;;20.20;41.50;;;;;;4769559;30;20121;-67
2022/04/18 13:54:08;;;;;;;6.45;5.80;;;20.30;41.30;;;;;;4768967;30;20140;-67
2022/04/18 13:56:34;;;;;;;6.97;6.10;;;20.20;40.90;;;;;;4769671;30;20567;-68
2022/04/18 13:59:02;;;;;;;6.78;6.05;;;20.20;40.60;;;;;;4753437;30;20455;-68
2022/04/18 14:01:28;;;;;;;6.55;5.38;;;20.10;40.90;;;;;;4753815;30;20327;-70
2022/04/18 14:03:55;;;;;;;7.32;5.93;;;20.20;41.40;;;;;;4753101;30;20070;-69
2022/04/18 14:06:26;;;;;;;7.93;5.50;;;20.20;41.30;;;;;;4753282;30;20048;-70
2022/04/18 14:08:53;;;;;;;6.35;5.70;;;20.30;43.00;;;;;;4753858;30;20083;-67
2022/04/18 14:11:18;;;;;;;6.75;5.95;;;20.20;41.70;;;;;;4753536;30;20490;-69
2022/04/18 14:13:44;;;;;;;6.45;5.65;;;20.20;41.40;;;;;;4753118;30;20048;-69
2022/04/18 14:21:40;;;;;;;6.32;5.72;;;20.30;42.10;;;;;;4769597;30;20055;-70
2022/04/18 14:24:05;;;;;;;6.53;5.82;;;20.30;41.30;;;;;;4753417;30;20482;-70
2022/04/18 14:26:32;;;;;;;6.22;5.63;;;20.40;42.10;;;;;;4753347;30;20108;-70
2022/04/18 14:28:58;;;;;;;6.82;5.13;;;20.40;41.30;;;;;;4738502;30;20058;-69